Time;durP1;ratioP1;P1;durP2;ratioP2;P2;SDS_P1;SDS_P2;PMS_P1;PMS_P2;Temp;Humidity;BMP_temperature;BMP_pressure;BME280_temperature;BME280_humidity;BME280_pressure;Samples;Min_cycle;Max_cycle;Signal;HPM_P1;HPM_P2
2022/10/31 00:01:56;;;;;;;10.87;4.30;;;;;;;-141.97;47.08;47524.84;5073957;28;20187;-80
2022/10/31 00:04:21;;;;;;;8.07;3.93;;;;;;;-141.97;47.19;47503.69;5075527;28;20176;-80
2022/10/31 00:06:46;;;;;;;7.83;3.67;;;;;;;-141.97;47.17;47640.16;5075043;28;20169;-79
2022/10/31 00:09:12;;;;;;;9.03;4.10;;;;;;;-141.97;46.82;47557.53;5057890;28;20168;-80
2022/10/31 00:11:37;;;;;;;8.53;3.77;;;;;;;-141.97;46.73;47530.59;5076625;28;20551;-79
2022/10/31 00:14:03;;;;;;;7.37;3.93;;;;;;;-141.97;46.71;47542.16;5075814;28;20161;-80
2022/10/31 00:16:29;;;;;;;6.93;3.87;;;;;;;-141.97;46.59;47503.69;5075456;28;20213;-80
2022/10/31 00:18:57;;;;;;;9.07;4.10;;;;;;;-141.97;46.55;47634.41;5076310;28;20203;-80
2022/10/31 00:21:24;;;;;;;7.80;3.80;;;;;;;-141.97;46.59;47519.06;5076549;28;20192;-80
2022/10/31 00:23:50;;;;;;;7.43;4.00;;;;;;;-141.97;46.50;47569.06;5075658;28;20365;-80
2022/10/31 00:26:15;;;;;;;7.47;4.40;;;;;;;-141.97;46.45;47534.44;5075628;28;20192;-80
2022/10/31 00:28:41;;;;;;;8.30;3.60;;;;;;;-141.97;46.77;47565.22;5076626;28;20184;-79
2022/10/31 00:31:09;;;;;;;9.27;3.97;;;;;;;-141.97;46.68;47547.91;5075454;28;20253;-80
2022/10/31 00:33:36;;;;;;;7.17;3.97;;;;;;;-141.97;46.39;47530.59;5075079;28;20696;-80
2022/10/31 00:36:02;;;;;;;11.07;4.53;;;;;;;-141.97;46.30;47522.91;5075237;28;20170;-81
2022/10/31 00:38:28;;;;;;;7.33;3.90;;;;;;;-141.97;46.03;47565.22;5074682;28;20222;-81
2022/10/31 00:40:53;;;;;;;7.70;4.60;;;;;;;-141.97;45.62;47515.22;5074812;28;20541;-80
2022/10/31 00:43:19;;;;;;;6.60;3.80;;;;;;;-141.97;45.32;47509.47;5074461;28;20161;-80
2022/10/31 00:45:44;;;;;;;8.60;4.40;;;;;;;-141.97;45.43;47536.38;5074475;28;20192;-80
2022/10/31 00:48:10;;;;;;;5.97;3.63;;;;;;;-141.97;45.23;47513.31;5074668;28;20161;-80
2022/10/31 00:50:36;;;;;;;7.87;4.10;;;;;;;-141.97;45.17;47524.84;5074562;28;20160;-81
2022/10/31 00:53:01;;;;;;;8.30;4.00;;;;;;;-141.97;45.12;47546.00;5074353;28;20628;-80
2022/10/31 00:55:27;;;;;;;7.50;3.90;;;;;;;-141.97;44.97;47496.00;5074407;28;20186;-80
2022/10/31 00:57:52;;;;;;;8.77;3.97;;;;;;;-141.97;44.80;47532.53;5074115;28;20629;-79
2022/10/31 01:00:17;;;;;;;6.03;3.73;;;;;;;-141.97;44.58;47517.16;5073858;28;20161;-80
2022/10/31 01:02:43;;;;;;;8.13;3.80;;;;;;;-141.97;44.48;47534.44;5056053;28;20185;-79
2022/10/31 01:05:08;;;;;;;9.13;4.00;;;;;;;-141.97;44.36;47505.63;5073879;28;20160;-79
2022/10/31 01:07:38;;;;;;;7.60;3.40;;;;;;;-141.97;44.19;47546.00;5056108;28;20716;-79
2022/10/31 01:10:05;;;;;;;5.83;3.67;;;;;;;-141.97;44.41;47509.47;5074027;28;20248;-80
2022/10/31 01:12:39;;;;;;;8.50;3.80;;;;;;;-141.97;44.40;47499.84;5074061;28;20161;-80
2022/10/31 01:15:05;;;;;;;6.73;3.60;;;;;;;-141.97;44.28;47532.53;5073720;28;20180;-81
2022/10/31 01:17:31;;;;;;;6.23;3.43;;;;;;;-141.97;44.39;47488.31;5073707;28;20176;-80
2022/10/31 01:19:56;;;;;;;5.67;3.50;;;;;;;-141.97;44.25;47534.44;5073552;28;20188;-80
2022/10/31 01:22:21;;;;;;;6.67;3.57;;;;;;;-141.97;44.11;47476.78;5073720;28;20157;-79
2022/10/31 01:24:47;;;;;;;6.93;3.70;;;;;;;-141.97;44.22;47532.53;5073676;28;20565;-79
2022/10/31 01:27:12;;;;;;;7.07;3.73;;;;;;;-141.97;44.30;47499.84;5056076;28;20212;-80
2022/10/31 01:29:37;;;;;;;9.17;3.50;;;;;;;-141.97;44.30;47559.44;5076420;28;20215;-79
2022/10/31 01:32:03;;;;;;;7.23;3.57;;;;;;;-141.97;44.12;47526.75;5095666;28;20175;-79
2022/10/31 01:34:28;;;;;;;6.20;3.47;;;;;;;-141.97;44.30;47536.38;5080586;28;20221;-79
2022/10/31 01:36:54;;;;;;;6.00;3.57;;;;;;;-141.97;44.04;47546.00;5074157;28;20177;-79
2022/10/31 01:39:19;;;;;;;6.67;3.60;;;;;;;-141.97;43.93;47484.47;5074461;28;20714;-80
2022/10/31 01:41:47;;;;;;;6.43;3.63;;;;;;;-141.97;44.08;47480.63;5074346;28;20170;-80
2022/10/31 01:44:13;;;;;;;8.07;3.67;;;;;;;-141.97;43.73;47488.31;5073420;28;20165;-80
2022/10/31 01:46:45;;;;;;;7.60;3.70;;;;;;;-141.97;43.61;47496.00;5073626;28;20165;-80
2022/10/31 01:49:18;;;;;;;6.07;3.50;;;;;;;-141.97;43.33;47534.44;5074617;28;20200;-80
2022/10/31 01:51:50;;;;;;;8.43;3.50;;;;;;;-141.97;43.33;47519.06;5074478;28;20161;-80
2022/10/31 01:54:20;;;;;;;5.87;3.53;;;;;;;-141.97;43.23;47547.91;5073304;28;20641;-80
2022/10/31 01:56:49;;;;;;;5.83;3.57;;;;;;;-141.97;43.26;47542.16;5073089;28;20299;-80
2022/10/31 01:59:17;;;;;;;6.27;3.70;;;;;;;-141.97;43.07;47551.75;5073154;28;20191;-80
2022/10/31 02:01:43;;;;;;;6.63;3.47;;;;;;;-141.97;43.12;47557.53;5073335;28;20230;-80
2022/10/31 02:04:09;;;;;;;6.00;3.27;;;;;;;-141.97;43.19;47519.06;5072882;28;20169;-80
2022/10/31 02:06:48;;;;;;;9.13;3.57;;;;;;;-141.97;43.08;47534.44;5073349;28;20246;-80
2022/10/31 02:09:14;;;;;;;8.13;3.93;;;;;;;-141.97;43.21;47503.69;5072867;28;20543;-81
2022/10/31 02:11:42;;;;;;;6.10;3.70;;;;;;;-141.97;43.34;47526.75;5073076;28;20168;-80
2022/10/31 02:14:07;;;;;;;8.50;4.03;;;;;;;-141.97;43.16;47546.00;5073292;28;20739;-80
2022/10/31 02:16:32;;;;;;;6.00;3.70;;;;;;;-141.97;42.89;47517.16;5073374;28;20204;-80
2022/10/31 02:18:58;;;;;;;6.63;3.47;;;;;;;-141.97;42.80;47557.53;5072939;28;20189;-79
2022/10/31 02:21:28;;;;;;;9.47;3.87;;;;;;;-141.97;42.79;47492.16;5072835;28;20176;-79
2022/10/31 02:24:20;;;;;;;6.70;3.60;;;;;;;-141.97;42.56;47534.44;5072779;28;20690;-80
2022/10/31 02:26:45;;;;;;;6.70;3.60;;;;;;;-141.97;42.45;47534.44;5073176;28;20190;-80
2022/10/31 02:29:31;;;;;;;6.10;3.53;;;;;;;-141.97;42.34;47522.91;5072937;28;20153;-80
2022/10/31 02:32:13;;;;;;;7.23;3.67;;;;;;;-141.97;42.28;47434.50;5072957;28;20547;-80
2022/10/31 02:34:41;;;;;;;5.97;2.87;;;;;;;-141.97;42.31;47513.31;5079480;28;20237;-79
2022/10/31 02:37:15;;;;;;;6.67;3.90;;;;;;;-141.97;42.28;47511.38;5075114;28;20254;-79
2022/10/31 02:40:05;;;;;;;8.20;4.00;;;;;;;-141.97;42.14;47515.22;5072975;28;20199;-81
2022/10/31 02:42:38;;;;;;;9.40;3.40;;;;;;;-141.97;42.17;47509.47;5072606;28;20165;-80
2022/10/31 02:45:07;;;;;;;10.73;4.67;;;;;;;-141.97;42.12;47497.94;5072818;28;20161;-80
2022/10/31 02:47:36;;;;;;;5.77;3.30;;;;;;;-141.97;42.14;47513.31;5072645;28;20251;-80
2022/10/31 02:50:15;;;;;;;7.23;3.70;;;;;;;-141.97;42.16;47530.59;5072626;28;20160;-80
2022/10/31 02:52:41;;;;;;;6.87;3.37;;;;;;;-141.97;42.34;47507.53;5072870;28;20165;-81
2022/10/31 02:55:32;;;;;;;6.37;3.60;;;;;;;-141.97;42.23;47496.00;5074520;28;20167;-80
2022/10/31 02:58:07;;;;;;;6.87;3.77;;;;;;;-141.97;42.40;47511.38;5076373;28;20161;-80
2022/10/31 03:00:57;;;;;;;7.33;3.73;;;;;;;-141.97;42.31;47517.16;5076405;28;20623;-80
2022/10/31 03:03:35;;;;;;;5.60;3.50;;;;;;;-141.97;42.24;47507.53;4994797;28;20183;-79
2022/10/31 03:06:27;;;;;;;6.43;3.40;;;;;;;-141.97;42.23;47542.16;4994703;28;20277;-79
2022/10/31 03:09:00;;;;;;;7.70;3.80;;;;;;;-141.97;41.95;47534.44;4955738;29;20307;-79
2022/10/31 03:11:32;;;;;;;7.13;3.43;;;;;;;-141.97;41.73;47496.00;4956960;29;20181;-80
2022/10/31 03:14:16;;;;;;;6.50;3.80;;;;;;;-141.97;41.60;47507.53;4958465;29;20214;-80
2022/10/31 03:17:04;;;;;;;5.87;3.30;;;;;;;-141.97;41.53;47488.31;4960953;29;20176;-82
2022/10/31 03:19:34;;;;;;;6.87;3.20;;;;;;;-141.97;41.63;47457.56;4960198;29;20224;-80
2022/10/31 03:22:26;;;;;;;5.07;3.20;;;;;;;-141.97;41.53;47503.69;4955834;29;20188;-79
2022/10/31 03:24:54;;;;;;;7.40;3.20;;;;;;;-141.97;41.44;47496.00;4955621;29;20708;-80
2022/10/31 03:27:24;;;;;;;8.40;3.50;;;;;;;-141.97;41.59;47476.78;4939497;29;20193;-81
2022/10/31 03:29:54;;;;;;;6.93;3.60;;;;;;;-141.97;41.65;47486.41;4955945;29;20169;-79
2022/10/31 03:32:44;;;;;;;6.67;3.47;;;;;;;-141.97;41.59;47538.28;4955713;29;20356;-80
2022/10/31 03:35:14;;;;;;;6.57;3.10;;;;;;;-141.97;41.65;47519.06;4939468;29;20221;-78
2022/10/31 03:37:41;;;;;;;6.63;3.67;;;;;;;-141.97;41.67;47492.16;4955369;29;20173;-79
2022/10/31 03:40:08;;;;;;;8.93;4.00;;;;;;;-141.97;41.72;47488.31;4976111;28;20261;-79
2022/10/31 03:42:39;;;;;;;6.93;3.60;;;;;;;-141.97;41.83;47526.75;5013415;28;20278;-80
2022/10/31 03:45:07;;;;;;;5.17;3.70;;;;;;;-141.97;41.99;47542.16;5030228;28;20185;-79
2022/10/31 03:47:36;;;;;;;6.17;3.40;;;;;;;-141.97;41.83;47501.78;5075770;28;20200;-79
2022/10/31 03:50:03;;;;;;;8.67;4.77;;;;;;;-141.97;42.27;47522.91;5075517;28;20610;-79
2022/10/31 03:52:46;;;;;;;8.40;4.13;;;;;;;-141.97;42.66;47530.59;5075619;28;20169;-79
2022/10/31 03:55:27;;;;;;;6.57;3.97;;;;;;;-141.97;42.80;47522.91;5075868;28;20214;-79
2022/10/31 03:58:02;;;;;;;7.93;3.90;;;;;;;-141.97;42.84;47511.38;5081605;28;20169;-80
2022/10/31 04:00:31;;;;;;;6.47;3.87;;;;;;;-141.97;43.06;47522.91;5097791;28;20156;-78
2022/10/31 04:03:03;;;;;;;9.00;4.33;;;;;;;-141.97;43.14;47532.53;5078067;28;20161;-80
2022/10/31 04:05:30;;;;;;;8.30;4.20;;;;;;;-141.97;43.29;47511.38;5057269;28;20168;-80
2022/10/31 04:07:58;;;;;;;6.40;3.77;;;;;;;-141.97;43.42;47517.16;5075617;28;20621;-80
2022/10/31 04:10:26;;;;;;;8.93;4.20;;;;;;;-141.97;43.61;47534.44;5074934;28;20167;-79
2022/10/31 04:12:57;;;;;;;8.53;4.07;;;;;;;-141.97;43.63;47513.31;5074999;28;20161;-80
2022/10/31 04:15:25;;;;;;;8.87;3.83;;;;;;;-141.97;43.64;47490.25;5075372;28;20161;-80
2022/10/31 04:17:54;;;;;;;8.33;4.63;;;;;;;-141.97;43.48;47544.06;5074796;28;20625;-80
2022/10/31 04:20:32;;;;;;;8.43;4.10;;;;;;;-141.97;43.55;47555.59;5074798;28;20165;-81
2022/10/31 04:22:58;;;;;;;7.53;4.50;;;;;;;-141.97;43.67;47492.16;5056761;28;20172;-79
2022/10/31 04:25:23;;;;;;;7.33;3.83;;;;;;;-141.97;43.76;47534.44;5055808;28;20597;-80
2022/10/31 04:27:49;;;;;;;8.07;4.20;;;;;;;-141.97;43.85;47521.00;5067757;28;20189;-79
2022/10/31 04:30:14;;;;;;;9.43;4.17;;;;;;;-141.97;43.87;47496.00;5060292;28;20319;-80
2022/10/31 04:32:40;;;;;;;7.43;3.93;;;;;;;-141.97;44.02;47515.22;5069996;28;20185;-81
2022/10/31 04:35:06;;;;;;;8.20;4.03;;;;;;;-141.97;44.29;47522.91;5075521;28;20217;-80
2022/10/31 04:37:31;;;;;;;6.27;3.77;;;;;;;-141.97;44.54;47509.47;5048296;28;20177;-80
2022/10/31 04:39:56;;;;;;;10.07;4.33;;;;;;;-141.97;44.45;47538.28;5052162;28;20213;-80
2022/10/31 04:42:22;;;;;;;7.80;4.00;;;;;;;-141.97;44.67;47521.00;5051898;28;20642;-80
2022/10/31 04:44:47;;;;;;;8.57;4.20;;;;;;;-141.97;44.65;47451.81;5051675;28;20193;-79
2022/10/31 04:47:12;;;;;;;10.10;4.70;;;;;;;-141.97;44.91;47484.47;5051601;28;20184;-79
2022/10/31 04:49:38;;;;;;;7.20;4.10;;;;;;;-141.97;44.88;47561.38;5059141;28;20185;-80
2022/10/31 04:52:03;;;;;;;7.80;3.73;;;;;;;-141.97;45.03;47542.16;5071546;28;20546;-79
2022/10/31 04:54:29;;;;;;;8.13;4.17;;;;;;;-141.97;45.15;47494.09;5058591;28;20187;-79
2022/10/31 04:56:54;;;;;;;9.60;4.47;;;;;;;-141.97;45.05;47519.06;5052425;28;20201;-80
2022/10/31 04:59:20;;;;;;;8.90;3.80;;;;;;;-141.97;45.02;47499.84;5050944;28;20255;-80
2022/10/31 05:01:45;;;;;;;7.47;3.80;;;;;;;-141.97;45.02;47551.75;5049978;28;20689;-80
2022/10/31 05:04:10;;;;;;;8.07;3.90;;;;;;;-141.97;45.23;47536.38;5043014;28;20191;-80
2022/10/31 05:06:36;;;;;;;9.00;4.07;;;;;;;-141.97;45.14;47534.44;5071523;28;20633;-80
2022/10/31 05:09:02;;;;;;;9.10;4.27;;;;;;;-141.97;45.03;47576.75;5071653;28;20667;-80
2022/10/31 05:11:27;;;;;;;8.60;3.87;;;;;;;-141.97;45.10;47524.84;5070896;28;20188;-79
2022/10/31 05:14:08;;;;;;;13.87;5.10;;;;;;;-141.97;45.12;47534.44;5063817;28;20681;-81
2022/10/31 05:16:41;;;;;;;12.03;5.27;;;;;;;-141.97;45.47;47480.63;5051304;28;20539;-80
2022/10/31 05:19:07;;;;;;;11.50;4.50;;;;;;;-141.97;45.38;47488.31;5050938;28;20676;-80
2022/10/31 05:21:32;;;;;;;9.97;5.30;;;;;;;-141.97;45.42;47519.06;5051438;28;20192;-80
2022/10/31 05:23:58;;;;;;;11.33;5.07;;;;;;;-141.97;45.28;47522.91;5051528;28;20766;-80
2022/10/31 05:26:23;;;;;;;9.63;4.63;;;;;;;-141.97;45.27;47521.00;5042285;28;20177;-79
2022/10/31 05:28:51;;;;;;;9.60;6.07;;;;;;;-141.97;45.06;47513.31;5072078;28;20261;-83
2022/10/31 05:31:17;;;;;;;7.60;4.20;;;;;;;-141.97;45.01;47501.78;5045513;28;20335;-83
2022/10/31 05:33:42;;;;;;;7.13;3.90;;;;;;;-141.97;44.96;47515.22;5066044;28;20205;-81
2022/10/31 05:36:08;;;;;;;6.77;3.90;;;;;;;-141.97;44.97;47534.44;5033491;28;20196;-79
2022/10/31 05:38:33;;;;;;;8.20;4.60;;;;;;;-141.97;44.80;47530.59;5051498;28;20262;-80
2022/10/31 05:41:00;;;;;;;7.20;4.13;;;;;;;-141.97;45.02;47521.00;5053465;28;20208;-80
2022/10/31 05:43:27;;;;;;;9.27;4.00;;;;;;;-141.97;44.75;47542.16;5057884;28;20710;-78
2022/10/31 05:45:53;;;;;;;7.60;4.50;;;;;;;-141.97;44.54;47526.75;5059992;28;21326;-80
2022/10/31 05:48:19;;;;;;;9.20;4.60;;;;;;;-141.97;44.57;47526.75;5051231;28;20346;-79
2022/10/31 05:50:44;;;;;;;9.67;4.80;;;;;;;-141.97;44.76;47644.00;5033655;28;20665;-79
2022/10/31 05:53:09;;;;;;;9.03;4.00;;;;;;;-141.97;44.52;47515.22;5051917;28;20279;-78
2022/10/31 05:55:35;;;;;;;8.03;4.67;;;;;;;-141.97;44.56;47467.19;5053172;28;20177;-79
2022/10/31 05:58:00;;;;;;;10.13;4.30;;;;;;;-141.97;44.42;47496.00;5057775;28;20185;-80
2022/10/31 06:00:27;;;;;;;10.03;4.50;;;;;;;-141.97;44.48;47526.75;5036320;28;20672;-80
2022/10/31 06:02:59;;;;;;;8.43;4.50;;;;;;;-141.97;44.44;47530.59;5063500;28;20180;-78
2022/10/31 06:05:25;;;;;;;9.13;4.43;;;;;;;-141.97;44.27;47530.59;5072621;28;20181;-79
2022/10/31 06:07:50;;;;;;;9.57;4.93;;;;;;;-141.97;44.45;47524.84;5071036;28;20212;-80
2022/10/31 06:10:16;;;;;;;13.00;5.57;;;;;;;-141.97;44.21;47511.38;5072123;28;20187;-79
2022/10/31 06:12:41;;;;;;;11.67;5.40;;;;;;;-141.97;44.23;47511.38;5072833;28;20188;-79
2022/10/31 06:15:08;;;;;;;11.77;4.73;;;;;;;-141.97;44.36;47492.16;5074910;28;20180;-80
2022/10/31 06:17:35;;;;;;;11.23;4.20;;;;;;;-141.97;44.52;47522.91;5072860;28;20188;-81
2022/10/31 06:20:00;;;;;;;9.27;4.20;;;;;;;-141.97;44.45;47484.47;5073177;28;20208;-79
2022/10/31 06:22:26;;;;;;;11.10;4.17;;;;;;;-141.97;44.33;47496.00;5072843;28;20180;-80
2022/10/31 06:24:51;;;;;;;13.37;4.27;;;;;;;-141.97;44.10;47511.38;5075252;28;20176;-80
2022/10/31 06:27:17;;;;;;;10.10;4.40;;;;;;;-141.97;43.70;47509.47;5074024;28;20272;-82
2022/10/31 06:29:42;;;;;;;12.57;5.47;;;;;;;-141.97;43.06;47494.09;5062448;28;20250;-81
2022/10/31 06:32:12;;;;;;;10.10;4.30;;;;;;;-141.97;42.67;47511.38;5044976;28;20235;-82
2022/10/31 06:34:37;;;;;;;16.50;6.50;;;;;;;-141.97;41.93;47515.22;5054675;28;20755;-82
2022/10/31 06:37:03;;;;;;;13.83;6.27;;;;;;;-141.97;41.04;47492.16;5054712;28;20264;-81
2022/10/31 06:39:28;;;;;;;9.33;4.10;;;;;;;-141.97;40.64;47524.84;5072979;28;20581;-81
2022/10/31 06:41:53;;;;;;;8.03;4.20;;;;;;;-141.97;40.74;47532.53;5055214;28;20232;-80
2022/10/31 06:44:19;;;;;;;6.67;4.33;;;;;;;-141.97;40.22;47540.22;5064676;28;20240;-82
2022/10/31 06:46:47;;;;;;;11.07;4.80;;;;;;;-141.97;40.23;47521.00;5055554;28;20196;-80
2022/10/31 06:49:12;;;;;;;7.73;4.60;;;;;;;-141.97;39.64;47511.38;5055516;28;20717;-79
2022/10/31 06:51:38;;;;;;;8.20;3.93;;;;;;;-141.97;39.76;47488.31;5073835;28;20275;-79
2022/10/31 06:54:03;;;;;;;7.80;3.80;;;;;;;-141.97;39.91;47509.47;5058062;28;20185;-80
2022/10/31 06:56:29;;;;;;;8.93;4.20;;;;;;;-141.97;40.04;47515.22;5053958;28;20264;-79
2022/10/31 06:58:54;;;;;;;8.90;4.20;;;;;;;-141.97;40.01;47503.69;5038095;28;20610;-80
2022/10/31 07:01:20;;;;;;;11.73;5.10;;;;;;;-141.97;39.92;47476.78;5071266;28;20191;-81
2022/10/31 07:03:45;;;;;;;7.07;3.73;;;;;;;-141.97;39.45;47484.47;5071431;28;20188;-79
2022/10/31 07:06:11;;;;;;;12.43;4.20;;;;;;;-141.97;39.36;47486.41;5072389;28;20185;-80
2022/10/31 07:08:36;;;;;;;7.33;4.20;;;;;;;-141.97;39.51;47509.47;5053411;28;20184;-81
2022/10/31 07:11:01;;;;;;;7.67;4.00;;;;;;;-141.97;39.45;47507.53;5071075;28;20259;-79
2022/10/31 07:13:27;;;;;;;9.77;4.20;;;;;;;-141.97;39.65;47494.09;5071685;28;20192;-80
2022/10/31 07:15:55;;;;;;;7.23;3.90;;;;;;;-141.97;39.53;47507.53;5071045;28;20193;-80
2022/10/31 07:18:21;;;;;;;10.47;3.90;;;;;;;-141.97;39.42;47459.50;5070247;28;20189;-79
2022/10/31 07:20:46;;;;;;;10.20;4.27;;;;;;;-141.97;39.33;47469.09;5059244;28;20207;-80
2022/10/31 07:23:13;;;;;;;8.53;4.10;;;;;;;-141.97;39.08;47532.53;5035463;28;20637;-80
2022/10/31 07:25:39;;;;;;;8.10;3.90;;;;;;;-141.97;38.77;47478.72;5059290;28;20276;-82
2022/10/31 07:28:08;;;;;;;7.17;3.83;;;;;;;-141.97;38.66;47422.97;5045125;28;20185;-80
2022/10/31 07:30:34;;;;;;;7.47;4.00;;;;;;;-141.97;38.46;47499.84;5030912;28;20317;-80
2022/10/31 07:33:14;;;;;;;8.30;4.00;;;;;;;-141.97;38.29;47513.31;5016562;28;20257;-83
2022/10/31 07:35:50;;;;;;;8.53;3.57;;;;;;;-141.97;38.22;47442.19;5025161;28;20249;-83
2022/10/31 07:38:18;;;;;;;9.67;4.37;;;;;;;-141.97;38.35;47319.19;5028153;28;20220;-82
2022/10/31 07:40:48;;;;;;;8.77;3.83;;;;;;;-141.97;38.06;47459.50;5008263;28;20743;-80
2022/10/31 07:43:14;;;;;;;8.43;4.50;;;;;;;-141.97;37.70;47492.16;5025958;28;20328;-79
2022/10/31 07:45:39;;;;;;;8.57;4.50;;;;;;;-141.97;37.27;47488.31;5027748;28;20276;-80
2022/10/31 07:48:05;;;;;;;8.27;4.60;;;;;;;-141.97;37.25;47484.47;5028703;28;20194;-79
2022/10/31 07:50:33;;;;;;;5.70;3.77;;;;;;;-141.97;37.10;47480.63;5026834;28;20198;-80
2022/10/31 07:52:59;;;;;;;6.63;4.03;;;;;;;-141.97;36.81;47442.19;5027905;28;20273;-79
2022/10/31 07:55:24;;;;;;;9.07;4.13;;;;;;;-141.97;36.88;47490.25;5028526;28;20282;-80
2022/10/31 07:58:02;;;;;;;7.40;4.00;;;;;;;-141.97;36.33;47576.75;5027370;28;20355;-79
2022/10/31 08:00:28;;;;;;;7.67;3.90;;;;;;;-141.97;36.24;47469.09;5027600;28;20596;-79
2022/10/31 08:03:02;;;;;;;7.87;4.30;;;;;;;-141.97;36.17;47471.03;5030100;28;20189;-79
2022/10/31 08:05:28;;;;;;;9.37;4.23;;;;;;;-141.97;35.92;47476.78;5030276;28;20193;-81
2022/10/31 08:07:54;;;;;;;8.70;4.23;;;;;;;-141.97;35.60;47492.16;5030646;28;20248;-78
2022/10/31 08:10:19;;;;;;;11.17;4.10;;;;;;;-141.97;35.39;47411.44;5030127;28;20185;-79
2022/10/31 08:12:45;;;;;;;7.40;4.30;;;;;;;-141.97;35.22;47465.25;5029961;28;20269;-81
2022/10/31 08:15:10;;;;;;;8.13;4.40;;;;;;;-141.97;34.62;47453.72;5030380;28;20174;-80
2022/10/31 08:17:36;;;;;;;8.17;4.10;;;;;;;-141.97;34.93;47421.06;5032816;28;20182;-79
2022/10/31 08:20:03;;;;;;;8.97;4.10;;;;;;;-141.97;35.29;47471.03;5033205;28;20217;-79
2022/10/31 08:22:28;;;;;;;10.23;4.23;;;;;;;-141.97;34.71;47472.94;5031356;28;20185;-79
2022/10/31 08:24:54;;;;;;;8.47;4.00;;;;;;;-141.97;34.17;47434.50;5030193;28;20178;-79
2022/10/31 08:27:19;;;;;;;7.30;3.67;;;;;;;-141.97;34.00;47413.38;5031648;28;20282;-78
2022/10/31 08:29:44;;;;;;;7.93;4.00;;;;;;;-141.97;33.67;47411.44;5034190;28;20186;-79
2022/10/31 08:32:10;;;;;;;7.33;4.10;;;;;;;-141.97;32.98;47388.38;5032885;28;20178;-80
2022/10/31 08:34:35;;;;;;;8.63;4.10;;;;;;;-141.97;32.74;47413.38;5051429;28;20243;-80
2022/10/31 08:37:01;;;;;;;12.33;5.10;;;;;;;-141.97;32.30;47376.84;5060805;28;20258;-80
2022/10/31 08:39:26;;;;;;;7.83;4.30;;;;;;;-141.97;31.85;47428.75;5053290;28;20563;-79
2022/10/31 08:41:51;;;;;;;6.80;4.00;;;;;;;-141.97;31.38;47394.16;5039509;28;20235;-79
2022/10/31 08:44:17;;;;;;;9.32;4.32;;;;;;;-141.97;31.08;47394.16;5049410;28;20264;-79
2022/10/31 08:46:42;;;;;;;9.45;4.18;;;;;;;-141.97;30.56;47369.16;5049207;28;20294;-79
2022/10/31 08:49:07;;;;;;;6.55;3.92;;;;;;;-141.97;30.46;47349.94;5052216;28;20671;-80
2022/10/31 08:51:33;;;;;;;6.80;3.92;;;;;;;-141.97;30.34;47386.47;5055541;28;20225;-79
2022/10/31 08:53:58;;;;;;;8.23;4.45;;;;;;;-141.97;30.25;47449.88;5059525;28;20191;-80
2022/10/31 08:56:24;;;;;;;9.05;4.22;;;;;;;-141.97;30.34;47315.34;5065437;28;20214;-77
2022/10/31 08:58:50;;;;;;;6.55;4.05;;;;;;;-141.97;30.06;47348.03;5049909;28;20194;-79
2022/10/31 09:01:16;;;;;;;6.28;3.65;;;;;;;-141.97;31.41;47394.16;5049807;28;20189;-78
2022/10/31 09:03:41;;;;;;;8.43;4.30;;;;;;;-141.97;31.00;47392.22;5048664;28;20608;-79
2022/10/31 09:06:08;;;;;;;7.55;3.95;;;;;;;-141.97;32.15;47430.66;5049084;28;20182;-80
2022/10/31 09:08:34;;;;;;;8.65;3.50;;;;;;;-141.97;31.96;47388.38;5031505;28;20610;-79
2022/10/31 09:11:00;;;;;;;8.68;3.60;;;;;;;-141.97;32.05;47411.44;5049199;28;20698;-80
2022/10/31 09:13:26;;;;;;;10.43;3.80;;;;;;;-141.97;31.65;47380.69;5048654;28;20176;-81
2022/10/31 09:15:52;;;;;;;8.23;3.47;;;;;;;-141.97;31.96;47392.22;5049653;28;20182;-79
2022/10/31 09:18:22;;;;;;;9.33;4.10;;;;;;;-141.97;32.96;47430.66;5049332;28;20236;-79
2022/10/31 09:20:49;;;;;;;9.63;4.20;;;;;;;-141.97;33.41;47428.75;5049350;28;20192;-80
2022/10/31 09:23:19;;;;;;;6.37;3.67;;;;;;;-141.97;32.48;47434.50;5049681;28;20177;-80
2022/10/31 09:25:46;;;;;;;8.63;4.10;;;;;;;-141.97;32.77;47436.44;5049237;28;20192;-80
2022/10/31 09:28:14;;;;;;;8.27;4.20;;;;;;;-141.97;32.83;47490.25;5049319;28;20177;-80
2022/10/31 09:30:40;;;;;;;8.80;4.20;;;;;;;-141.97;32.66;47426.81;5050575;28;20181;-79
2022/10/31 09:33:09;;;;;;;12.57;4.40;;;;;;;-141.97;32.48;47430.66;5040171;28;20236;-79
2022/10/31 09:35:35;;;;;;;6.80;3.90;;;;;;;-141.97;32.28;47405.69;5049516;28;21045;-79
2022/10/31 09:38:10;;;;;;;8.57;4.30;;;;;;;-141.97;32.75;47415.28;5050605;28;20276;-78
2022/10/31 09:40:46;;;;;;;7.40;4.30;;;;;;;-141.97;32.52;47553.69;5050504;28;20213;-80
2022/10/31 09:43:33;;;;;;;9.33;4.23;;;;;;;-141.97;32.30;47403.75;5046583;28;20272;-80
2022/10/31 09:46:09;;;;;;;7.37;4.20;;;;;;;-141.97;31.99;47392.22;5051085;28;20617;-79
2022/10/31 09:48:35;;;;;;;8.57;4.43;;;;;;;-141.97;31.70;47378.78;5051816;28;20186;-78
2022/10/31 09:51:06;;;;;;;7.80;3.53;;;;;;;-141.97;31.42;47430.66;5050519;28;20174;-78
2022/10/31 09:53:39;;;;;;;9.45;3.47;;;;;;;-141.97;30.90;47411.44;5054723;28;20197;-79
2022/10/31 09:56:11;;;;;;;6.50;3.10;;;;;;;-141.97;30.39;47396.06;5055549;28;20211;-78
2022/10/31 09:58:43;;;;;;;7.50;3.03;;;;;;;-141.97;30.64;47369.16;5052321;28;20222;-80
2022/10/31 10:01:44;;;;;;;8.07;3.20;;;;;;;-141.97;30.72;47376.84;5053654;28;20215;-78
2022/10/31 10:04:32;;;;;;;8.68;3.35;;;;;;;-141.97;30.54;47265.38;5042668;28;20185;-79
2022/10/31 10:06:58;;;;;;;5.72;3.33;;;;;;;-141.97;30.93;47392.22;5070549;28;20192;-79
2022/10/31 10:09:27;;;;;;;5.75;2.70;;;;;;;-141.97;31.32;47403.75;5071299;28;20266;-78
2022/10/31 10:12:40;;;;;;;7.00;3.50;;;;;;;-141.97;31.41;47405.69;5070496;28;20190;-78
2022/10/31 10:15:20;;;;;;;5.07;2.85;;;;;;;-141.97;30.72;47384.53;4988592;28;20914;-78
2022/10/31 10:18:03;;;;;;;6.15;3.53;;;;;;;-141.97;30.71;47367.25;4991440;28;20318;-78
2022/10/31 10:20:47;;;;;;;6.18;3.17;;;;;;;-141.97;29.92;47388.38;4989194;28;20289;-78
2022/10/31 10:23:18;;;;;;;7.00;3.35;;;;;;;-141.97;29.53;47357.63;4988373;28;20189;-78
2022/10/31 10:25:49;;;;;;;5.57;3.00;;;;;;;-141.97;29.76;47392.22;4988625;28;20193;-78
2022/10/31 10:28:38;;;;;;;8.43;4.78;;;;;;;-141.97;29.58;47373.00;4989083;28;20182;-78
2022/10/31 10:31:15;;;;;;;5.72;2.92;;;;;;;-141.97;29.31;47340.34;4989045;28;20189;-78
2022/10/31 10:34:02;;;;;;;7.35;3.28;;;;;;;-141.97;29.23;47467.19;4988398;28;20324;-80
2022/10/31 10:36:37;;;;;;;6.68;3.20;;;;;;;-141.97;29.42;47332.66;4989082;28;20556;-78
2022/10/31 10:39:16;;;;;;;3.88;2.85;;;;;;;-141.97;29.76;47380.69;4972963;28;20487;-79
2022/10/31 10:41:46;;;;;;;6.25;2.90;;;;;;;-141.97;30.25;47384.53;4979546;28;20244;-81
2022/10/31 10:44:12;;;;;;;7.70;2.85;;;;;;;-141.97;30.25;47376.84;4988796;28;20311;-79
2022/10/31 10:49:49;;;;;;;7.72;3.15;;;;;;;-141.97;30.19;47351.88;4990447;28;20264;-79
2022/10/31 10:52:23;;;;;;;6.28;2.72;;;;;;;-141.97;30.05;47396.06;5070275;28;20186;-78
2022/10/31 10:55:23;;;;;;;9.18;3.47;;;;;;;-141.97;29.89;47357.63;5069698;28;20232;-79
2022/10/31 10:57:54;;;;;;;7.63;3.30;;;;;;;-141.97;30.28;47338.41;5070378;28;20245;-80
2022/10/31 11:00:41;;;;;;;6.78;3.28;;;;;;;-141.97;30.23;47373.00;5070433;28;20221;-79
2022/10/31 11:03:07;;;;;;;4.53;3.08;;;;;;;-141.97;30.26;47313.44;5069349;28;20677;-78
2022/10/31 11:05:42;;;;;;;5.72;2.80;;;;;;;-141.97;29.75;47346.09;5070631;28;20206;-80
2022/10/31 11:08:08;;;;;;;6.50;3.33;;;;;;;-141.97;29.76;47355.72;5073204;28;20182;-78
2022/10/31 11:10:34;;;;;;;6.28;3.17;;;;;;;-141.97;29.12;47344.19;5072002;28;20276;-80
2022/10/31 11:13:02;;;;;;;5.53;3.10;;;;;;;-141.97;29.15;47338.41;5074970;28;20185;-79
2022/10/31 11:15:30;;;;;;;5.43;2.83;;;;;;;-141.97;28.58;47369.16;5083468;28;20270;-79
2022/10/31 11:17:57;;;;;;;6.78;2.70;;;;;;;-141.97;28.58;47346.09;5074000;28;20181;-78
2022/10/31 11:20:36;;;;;;;8.38;3.00;;;;;;;-141.97;29.52;47373.00;5073462;28;20699;-77
2022/10/31 11:23:24;;;;;;;7.90;2.72;;;;;;;-141.97;29.89;47384.53;5073672;28;20744;-77
2022/10/31 11:26:06;;;;;;;9.45;2.97;;;;;;;-141.97;30.07;47349.94;5072915;28;20228;-79
2022/10/31 11:28:34;;;;;;;7.60;3.40;;;;;;;-141.97;30.28;47367.25;5072882;28;20187;-78
2022/10/31 11:31:08;;;;;;;6.05;3.30;;;;;;;-141.97;29.89;47384.53;5073550;28;20580;-78